עמוד ראשי
METAR-TAF:

METAR-TAF

שדות תעופה :

Dawadmi, ערב הסעודית

קו רוחב: 24-26-59N, קו אורך: 044-07-16E, גובה: 922מטר

תצפית מזג אוויר נוכחית

הדו"ח נערך לפני 51דקות, בשעה 06:00 UTC
רוח 8קשר מכיוון צפון-מזרח
טמפרטורת 39 צלסיוס
לחות 5%
לחץ 1011 hPa
ראות 10 קילומטר או יותר
ללא עננים שבסיסם נמוך מ 5000 רגל או קומולונימבוס

METAR: OEDM 200600Z 04008KT CAVOK 39/M07 Q1011

זמן: 09:51 (06:51 UTC)

תחזית

הדו"ח נערך לפני 7 שעות ו 51דקות, בשעה 23:00 UTC
תחזית בתוקף מ 20 ב 00 UTC עד 21 ב 06 UTC
רוח 10קשר מכיוון מזרח
ראות 10 קילומטר או יותר
ללא עננים שבסיסם נמוך מ 5000 רגל או קומולונימבוס
יעשה מ
20 ב 08 UTC עד 20 ב 10 UTC
רוח 14קשר מכיוון צפון/צפון-מזרח
ראות: 7000מטר
יעשה מ
20 ב 18 UTC עד 20 ב 20 UTC
רוח 8קשר מכיוון צפון-מזרח

TAF: OEDM 192300Z 2000/2106 08010KT CAVOK BECMG 2008/2010 02014KT 7000 NSC BECMG 2018/2020 04008KT

תצפיות ותחזיות מזג אוויר לגבי יותר מ- 4,000 שדות תעופה ברחבי העולם. דוחות METAR ו- TAF.

התחנות הזמינות מסומנות בנקודות צהובות ואדומות על גבי המפה.

העבר את העכבר לנקודה הצבעונית על מנת לראות את שם התחנה.

לאחר מכן, לחץ כדי לראות את תוכן ואת תחזיות מזג האוויר.

כדי לשנות את המפה: לחץ על הכפתורים הירוקים עם הפלוס השחור כדי להתקרב; על הכפתור הירוק עם המקף כדי להתרחק; או בחיצים הירוקים למפות סמוכות.


METAR-TAF: